sensor_id;sensor_type;location;lat;lon;timestamp;P1;durP1;ratioP1;P2;durP2;ratioP2
37485;SDS011;23341;50.296;18.960;2022-07-23T00:01:48;11.85;;;7.93;;
37485;SDS011;23341;50.296;18.960;2022-07-23T00:06:52;9.18;;;8.27;;
37485;SDS011;23341;50.296;18.960;2022-07-23T00:11:56;11.15;;;8.27;;
37485;SDS011;23341;50.296;18.960;2022-07-23T00:17:00;9.43;;;8.52;;
37485;SDS011;23341;50.296;18.960;2022-07-23T00:22:03;9.85;;;8.50;;
37485;SDS011;23341;50.296;18.960;2022-07-23T00:27:08;9.13;;;8.27;;
37485;SDS011;23341;50.296;18.960;2022-07-23T00:32:12;10.82;;;7.70;;
37485;SDS011;23341;50.296;18.960;2022-07-23T00:37:35;12.00;;;8.43;;
37485;SDS011;23341;50.296;18.960;2022-07-23T00:42:40;14.43;;;9.18;;
37485;SDS011;23341;50.296;18.960;2022-07-23T00:47:43;11.82;;;9.23;;
37485;SDS011;23341;50.296;18.960;2022-07-23T00:52:47;13.43;;;8.85;;
37485;SDS011;23341;50.296;18.960;2022-07-23T00:57:52;16.63;;;9.98;;
37485;SDS011;23341;50.296;18.960;2022-07-23T01:02:56;22.98;;;11.25;;
37485;SDS011;23341;50.296;18.960;2022-07-23T01:08:00;22.67;;;12.48;;
37485;SDS011;23341;50.296;18.960;2022-07-23T01:13:05;18.38;;;11.80;;
37485;SDS011;23341;50.296;18.960;2022-07-23T01:18:10;24.85;;;14.75;;
37485;SDS011;23341;50.296;18.960;2022-07-23T01:23:16;28.77;;;15.38;;
37485;SDS011;23341;50.296;18.960;2022-07-23T01:28:25;32.80;;;14.93;;
37485;SDS011;23341;50.296;18.960;2022-07-23T01:33:29;25.80;;;15.02;;
37485;SDS011;23341;50.296;18.960;2022-07-23T01:38:34;32.13;;;15.65;;
37485;SDS011;23341;50.296;18.960;2022-07-23T01:43:38;25.02;;;15.98;;
37485;SDS011;23341;50.296;18.960;2022-07-23T01:48:42;29.00;;;16.42;;
37485;SDS011;23341;50.296;18.960;2022-07-23T01:53:59;28.35;;;16.42;;
37485;SDS011;23341;50.296;18.960;2022-07-23T01:59:04;27.27;;;16.10;;
37485;SDS011;23341;50.296;18.960;2022-07-23T02:04:08;28.67;;;15.90;;
37485;SDS011;23341;50.296;18.960;2022-07-23T02:09:13;21.67;;;15.23;;
37485;SDS011;23341;50.296;18.960;2022-07-23T02:14:16;18.20;;;14.05;;
37485;SDS011;23341;50.296;18.960;2022-07-23T02:19:20;22.48;;;15.82;;
37485;SDS011;23341;50.296;18.960;2022-07-23T02:24:25;27.30;;;15.73;;
37485;SDS011;23341;50.296;18.960;2022-07-23T02:29:29;21.40;;;15.73;;
37485;SDS011;23341;50.296;18.960;2022-07-23T02:34:32;24.20;;;14.90;;
37485;SDS011;23341;50.296;18.960;2022-07-23T02:39:37;23.00;;;15.13;;
37485;SDS011;23341;50.296;18.960;2022-07-23T02:44:40;21.60;;;15.27;;
37485;SDS011;23341;50.296;18.960;2022-07-23T02:49:44;18.75;;;14.52;;
37485;SDS011;23341;50.296;18.960;2022-07-23T02:54:49;20.65;;;14.35;;
37485;SDS011;23341;50.296;18.960;2022-07-23T02:59:53;17.52;;;13.63;;
37485;SDS011;23341;50.296;18.960;2022-07-23T03:04:57;16.70;;;14.45;;
37485;SDS011;23341;50.296;18.960;2022-07-23T03:10:02;20.45;;;14.13;;
37485;SDS011;23341;50.296;18.960;2022-07-23T03:15:07;18.42;;;14.70;;
37485;SDS011;23341;50.296;18.960;2022-07-23T03:20:11;19.45;;;15.15;;
37485;SDS011;23341;50.296;18.960;2022-07-23T03:25:16;16.02;;;13.93;;
37485;SDS011;23341;50.296;18.960;2022-07-23T03:30:19;21.13;;;15.15;;
37485;SDS011;23341;50.296;18.960;2022-07-23T03:35:23;16.45;;;14.63;;
37485;SDS011;23341;50.296;18.960;2022-07-23T03:40:51;18.25;;;13.77;;
37485;SDS011;23341;50.296;18.960;2022-07-23T03:45:55;23.80;;;16.75;;
37485;SDS011;23341;50.296;18.960;2022-07-23T03:50:58;18.15;;;16.23;;
37485;SDS011;23341;50.296;18.960;2022-07-23T03:56:03;18.02;;;15.90;;
37485;SDS011;23341;50.296;18.960;2022-07-23T04:01:08;19.38;;;15.80;;
37485;SDS011;23341;50.296;18.960;2022-07-23T04:06:11;23.38;;;16.63;;
37485;SDS011;23341;50.296;18.960;2022-07-23T04:11:16;20.42;;;17.92;;
37485;SDS011;23341;50.296;18.960;2022-07-23T04:16:20;20.00;;;16.65;;
37485;SDS011;23341;50.296;18.960;2022-07-23T04:21:24;24.35;;;17.55;;
37485;SDS011;23341;50.296;18.960;2022-07-23T04:26:29;23.40;;;18.33;;
37485;SDS011;23341;50.296;18.960;2022-07-23T04:31:33;24.90;;;18.83;;
37485;SDS011;23341;50.296;18.960;2022-07-23T04:36:39;27.05;;;19.17;;
37485;SDS011;23341;50.296;18.960;2022-07-23T04:41:44;23.40;;;17.50;;
37485;SDS011;23341;50.296;18.960;2022-07-23T04:46:48;23.50;;;19.27;;
37485;SDS011;23341;50.296;18.960;2022-07-23T04:51:53;21.83;;;19.05;;
37485;SDS011;23341;50.296;18.960;2022-07-23T04:56:58;24.48;;;18.70;;
37485;SDS011;23341;50.296;18.960;2022-07-23T05:02:02;24.40;;;19.30;;
37485;SDS011;23341;50.296;18.960;2022-07-23T05:07:06;26.27;;;17.55;;
37485;SDS011;23341;50.296;18.960;2022-07-23T05:12:11;22.15;;;16.52;;
37485;SDS011;23341;50.296;18.960;2022-07-23T05:17:17;21.00;;;16.50;;
37485;SDS011;23341;50.296;18.960;2022-07-23T05:22:20;22.35;;;16.17;;
37485;SDS011;23341;50.296;18.960;2022-07-23T05:27:26;18.05;;;14.52;;
37485;SDS011;23341;50.296;18.960;2022-07-23T05:32:30;19.95;;;14.40;;
37485;SDS011;23341;50.296;18.960;2022-07-23T05:37:44;50.42;;;15.43;;
37485;SDS011;23341;50.296;18.960;2022-07-23T05:42:49;17.40;;;13.45;;
37485;SDS011;23341;50.296;18.960;2022-07-23T05:47:52;16.10;;;13.27;;
37485;SDS011;23341;50.296;18.960;2022-07-23T05:53:05;15.18;;;12.18;;
37485;SDS011;23341;50.296;18.960;2022-07-23T05:58:27;14.52;;;12.93;;
37485;SDS011;23341;50.296;18.960;2022-07-23T06:03:31;16.05;;;13.00;;
37485;SDS011;23341;50.296;18.960;2022-07-23T06:08:35;11.63;;;10.52;;
37485;SDS011;23341;50.296;18.960;2022-07-23T06:13:40;17.92;;;11.55;;
37485;SDS011;23341;50.296;18.960;2022-07-23T06:18:44;14.15;;;12.70;;
37485;SDS011;23341;50.296;18.960;2022-07-23T06:23:49;13.32;;;12.00;;
37485;SDS011;23341;50.296;18.960;2022-07-23T06:28:54;14.23;;;12.77;;
37485;SDS011;23341;50.296;18.960;2022-07-23T06:33:57;16.92;;;12.45;;
37485;SDS011;23341;50.296;18.960;2022-07-23T06:39:00;12.27;;;11.07;;
37485;SDS011;23341;50.296;18.960;2022-07-23T06:44:06;14.38;;;11.45;;
37485;SDS011;23341;50.296;18.960;2022-07-23T06:49:10;13.43;;;10.55;;
37485;SDS011;23341;50.296;18.960;2022-07-23T06:54:13;12.43;;;11.32;;
37485;SDS011;23341;50.296;18.960;2022-07-23T06:59:19;12.55;;;11.30;;
37485;SDS011;23341;50.296;18.960;2022-07-23T07:04:22;21.13;;;18.95;;
37485;SDS011;23341;50.296;18.960;2022-07-23T07:09:26;20.67;;;14.02;;
37485;SDS011;23341;50.296;18.960;2022-07-23T07:14:33;16.63;;;14.82;;
37485;SDS011;23341;50.296;18.960;2022-07-23T07:19:37;19.35;;;12.30;;
37485;SDS011;23341;50.296;18.960;2022-07-23T07:24:41;15.55;;;14.00;;
37485;SDS011;23341;50.296;18.960;2022-07-23T07:29:46;16.52;;;11.60;;
37485;SDS011;23341;50.296;18.960;2022-07-23T07:34:50;14.10;;;12.15;;
37485;SDS011;23341;50.296;18.960;2022-07-23T07:39:54;11.75;;;10.82;;
37485;SDS011;23341;50.296;18.960;2022-07-23T07:44:59;14.07;;;11.90;;
37485;SDS011;23341;50.296;18.960;2022-07-23T07:50:02;16.35;;;12.43;;
37485;SDS011;23341;50.296;18.960;2022-07-23T07:55:08;13.07;;;11.85;;
37485;SDS011;23341;50.296;18.960;2022-07-23T08:00:14;12.90;;;11.60;;
37485;SDS011;23341;50.296;18.960;2022-07-23T08:05:18;14.68;;;11.95;;
37485;SDS011;23341;50.296;18.960;2022-07-23T08:10:29;10.43;;;9.43;;
37485;SDS011;23341;50.296;18.960;2022-07-23T08:15:35;13.70;;;10.40;;
37485;SDS011;23341;50.296;18.960;2022-07-23T08:20:38;13.57;;;10.18;;
37485;SDS011;23341;50.296;18.960;2022-07-23T08:25:42;15.68;;;9.43;;
37485;SDS011;23341;50.296;18.960;2022-07-23T08:30:47;14.23;;;9.63;;
37485;SDS011;23341;50.296;18.960;2022-07-23T08:35:50;9.75;;;8.93;;
37485;SDS011;23341;50.296;18.960;2022-07-23T08:40:55;10.00;;;9.20;;
37485;SDS011;23341;50.296;18.960;2022-07-23T08:46:01;8.77;;;7.82;;
37485;SDS011;23341;50.296;18.960;2022-07-23T08:51:06;10.27;;;8.20;;
37485;SDS011;23341;50.296;18.960;2022-07-23T08:56:12;8.15;;;6.93;;
37485;SDS011;23341;50.296;18.960;2022-07-23T09:01:17;7.75;;;6.97;;
37485;SDS011;23341;50.296;18.960;2022-07-23T09:06:20;11.73;;;6.55;;
37485;SDS011;23341;50.296;18.960;2022-07-23T09:11:24;6.57;;;5.88;;
37485;SDS011;23341;50.296;18.960;2022-07-23T09:16:29;7.35;;;6.68;;
37485;SDS011;23341;50.296;18.960;2022-07-23T09:21:38;9.57;;;6.47;;
37485;SDS011;23341;50.296;18.960;2022-07-23T09:26:43;5.95;;;5.55;;
37485;SDS011;23341;50.296;18.960;2022-07-23T09:31:51;4.78;;;4.38;;
37485;SDS011;23341;50.296;18.960;2022-07-23T09:36:56;5.50;;;5.00;;
37485;SDS011;23341;50.296;18.960;2022-07-23T09:42:12;7.32;;;6.50;;
37485;SDS011;23341;50.296;18.960;2022-07-23T09:47:18;9.00;;;5.97;;
37485;SDS011;23341;50.296;18.960;2022-07-23T09:52:25;6.07;;;5.25;;
37485;SDS011;23341;50.296;18.960;2022-07-23T09:57:34;5.47;;;5.07;;
37485;SDS011;23341;50.296;18.960;2022-07-23T10:02:39;6.90;;;5.70;;
37485;SDS011;23341;50.296;18.960;2022-07-23T10:08:02;6.82;;;6.15;;
37485;SDS011;23341;50.296;18.960;2022-07-23T10:13:15;6.28;;;5.78;;
37485;SDS011;23341;50.296;18.960;2022-07-23T10:18:36;6.85;;;6.07;;
37485;SDS011;23341;50.296;18.960;2022-07-23T10:23:48;15.13;;;7.22;;
37485;SDS011;23341;50.296;18.960;2022-07-23T10:29:05;6.63;;;6.03;;
37485;SDS011;23341;50.296;18.960;2022-07-23T10:34:17;7.38;;;6.75;;
37485;SDS011;23341;50.296;18.960;2022-07-23T10:39:26;10.02;;;6.20;;
37485;SDS011;23341;50.296;18.960;2022-07-23T10:44:38;7.30;;;6.35;;
37485;SDS011;23341;50.296;18.960;2022-07-23T10:49:45;7.03;;;6.38;;
37485;SDS011;23341;50.296;18.960;2022-07-23T10:54:50;6.55;;;5.88;;
37485;SDS011;23341;50.296;18.960;2022-07-23T11:00:12;6.10;;;5.60;;
37485;SDS011;23341;50.296;18.960;2022-07-23T11:05:26;8.07;;;5.72;;
37485;SDS011;23341;50.296;18.960;2022-07-23T11:10:44;6.75;;;6.15;;
37485;SDS011;23341;50.296;18.960;2022-07-23T11:16:03;5.95;;;5.40;;
37485;SDS011;23341;50.296;18.960;2022-07-23T11:27:02;6.95;;;6.15;;
37485;SDS011;23341;50.296;18.960;2022-07-23T11:32:06;9.55;;;6.03;;
37485;SDS011;23341;50.296;18.960;2022-07-23T11:37:28;9.77;;;6.63;;
37485;SDS011;23341;50.296;18.960;2022-07-23T11:42:36;6.80;;;5.75;;
37485;SDS011;23341;50.296;18.960;2022-07-23T11:47:41;6.70;;;6.20;;
37485;SDS011;23341;50.296;18.960;2022-07-23T11:52:44;13.18;;;6.25;;
37485;SDS011;23341;50.296;18.960;2022-07-23T11:57:50;6.55;;;5.95;;
37485;SDS011;23341;50.296;18.960;2022-07-23T12:02:55;25.90;;;6.57;;
37485;SDS011;23341;50.296;18.960;2022-07-23T12:08:03;11.93;;;5.90;;
37485;SDS011;23341;50.296;18.960;2022-07-23T12:13:09;6.57;;;6.07;;
37485;SDS011;23341;50.296;18.960;2022-07-23T12:18:16;7.82;;;6.28;;
37485;SDS011;23341;50.296;18.960;2022-07-23T12:23:22;6.15;;;5.65;;
37485;SDS011;23341;50.296;18.960;2022-07-23T12:28:28;6.20;;;5.65;;
37485;SDS011;23341;50.296;18.960;2022-07-23T12:33:35;5.87;;;5.47;;
37485;SDS011;23341;50.296;18.960;2022-07-23T12:38:41;6.53;;;5.93;;
37485;SDS011;23341;50.296;18.960;2022-07-23T12:43:46;7.28;;;6.57;;
37485;SDS011;23341;50.296;18.960;2022-07-23T12:48:50;6.63;;;6.03;;
37485;SDS011;23341;50.296;18.960;2022-07-23T12:53:57;7.57;;;6.47;;
37485;SDS011;23341;50.296;18.960;2022-07-23T12:59:06;7.43;;;6.72;;
37485;SDS011;23341;50.296;18.960;2022-07-23T13:04:17;7.95;;;7.18;;
37485;SDS011;23341;50.296;18.960;2022-07-23T13:09:23;8.68;;;7.35;;
37485;SDS011;23341;50.296;18.960;2022-07-23T13:14:35;7.90;;;6.97;;
37485;SDS011;23341;50.296;18.960;2022-07-23T13:19:40;10.02;;;7.82;;
37485;SDS011;23341;50.296;18.960;2022-07-23T13:24:44;9.30;;;8.23;;
37485;SDS011;23341;50.296;18.960;2022-07-23T13:29:49;10.20;;;7.40;;
37485;SDS011;23341;50.296;18.960;2022-07-23T13:34:54;10.90;;;7.50;;
37485;SDS011;23341;50.296;18.960;2022-07-23T13:39:58;7.35;;;6.75;;
37485;SDS011;23341;50.296;18.960;2022-07-23T13:45:03;7.93;;;6.70;;
37485;SDS011;23341;50.296;18.960;2022-07-23T13:50:13;7.47;;;6.80;;
37485;SDS011;23341;50.296;18.960;2022-07-23T14:00:29;38.80;;;8.18;;
37485;SDS011;23341;50.296;18.960;2022-07-23T14:05:53;28.52;;;7.53;;
37485;SDS011;23341;50.296;18.960;2022-07-23T14:10:58;22.35;;;8.13;;
37485;SDS011;23341;50.296;18.960;2022-07-23T14:16:09;12.20;;;6.80;;
37485;SDS011;23341;50.296;18.960;2022-07-23T14:21:13;21.05;;;7.90;;
37485;SDS011;23341;50.296;18.960;2022-07-23T14:26:17;12.18;;;7.20;;
37485;SDS011;23341;50.296;18.960;2022-07-23T14:31:23;17.17;;;7.40;;
37485;SDS011;23341;50.296;18.960;2022-07-23T14:36:26;13.15;;;7.93;;
37485;SDS011;23341;50.296;18.960;2022-07-23T14:41:30;9.88;;;7.10;;
37485;SDS011;23341;50.296;18.960;2022-07-23T14:46:35;15.25;;;8.55;;
37485;SDS011;23341;50.296;18.960;2022-07-23T14:51:39;16.35;;;9.35;;
37485;SDS011;23341;50.296;18.960;2022-07-23T14:56:44;19.45;;;8.18;;
37485;SDS011;23341;50.296;18.960;2022-07-23T15:01:48;13.70;;;8.57;;
37485;SDS011;23341;50.296;18.960;2022-07-23T15:06:54;18.27;;;8.88;;
37485;SDS011;23341;50.296;18.960;2022-07-23T15:11:58;9.63;;;8.40;;
37485;SDS011;23341;50.296;18.960;2022-07-23T15:17:05;13.48;;;9.05;;
37485;SDS011;23341;50.296;18.960;2022-07-23T15:22:11;10.70;;;9.50;;
37485;SDS011;23341;50.296;18.960;2022-07-23T15:27:18;13.15;;;10.57;;
37485;SDS011;23341;50.296;18.960;2022-07-23T15:32:23;11.80;;;9.57;;
37485;SDS011;23341;50.296;18.960;2022-07-23T15:37:28;12.48;;;9.45;;
37485;SDS011;23341;50.296;18.960;2022-07-23T15:42:35;11.02;;;9.68;;
37485;SDS011;23341;50.296;18.960;2022-07-23T15:47:41;11.40;;;10.23;;
37485;SDS011;23341;50.296;18.960;2022-07-23T15:52:45;12.57;;;10.95;;
37485;SDS011;23341;50.296;18.960;2022-07-23T15:57:49;11.88;;;10.38;;
37485;SDS011;23341;50.296;18.960;2022-07-23T16:02:56;9.98;;;9.07;;
37485;SDS011;23341;50.296;18.960;2022-07-23T16:08:07;11.98;;;10.25;;
37485;SDS011;23341;50.296;18.960;2022-07-23T16:13:10;14.45;;;9.55;;
37485;SDS011;23341;50.296;18.960;2022-07-23T16:18:15;13.68;;;9.48;;
37485;SDS011;23341;50.296;18.960;2022-07-23T16:23:19;10.65;;;9.50;;
37485;SDS011;23341;50.296;18.960;2022-07-23T16:28:22;15.85;;;9.77;;
37485;SDS011;23341;50.296;18.960;2022-07-23T16:33:27;12.65;;;10.63;;
37485;SDS011;23341;50.296;18.960;2022-07-23T16:38:32;10.43;;;9.48;;
37485;SDS011;23341;50.296;18.960;2022-07-23T16:43:36;12.98;;;9.90;;
37485;SDS011;23341;50.296;18.960;2022-07-23T16:48:41;11.45;;;9.65;;
37485;SDS011;23341;50.296;18.960;2022-07-23T16:53:45;9.10;;;8.32;;
37485;SDS011;23341;50.296;18.960;2022-07-23T16:58:48;9.93;;;9.05;;
37485;SDS011;23341;50.296;18.960;2022-07-23T17:03:53;12.20;;;9.65;;
37485;SDS011;23341;50.296;18.960;2022-07-23T17:08:57;15.48;;;10.68;;
37485;SDS011;23341;50.296;18.960;2022-07-23T17:14:06;15.38;;;9.77;;
37485;SDS011;23341;50.296;18.960;2022-07-23T17:24:21;12.05;;;10.70;;
37485;SDS011;23341;50.296;18.960;2022-07-23T17:29:24;11.85;;;10.65;;
37485;SDS011;23341;50.296;18.960;2022-07-23T17:34:30;20.55;;;10.93;;
37485;SDS011;23341;50.296;18.960;2022-07-23T17:39:34;12.93;;;10.07;;
37485;SDS011;23341;50.296;18.960;2022-07-23T17:44:37;10.52;;;9.48;;
37485;SDS011;23341;50.296;18.960;2022-07-23T17:49:44;10.35;;;9.48;;
37485;SDS011;23341;50.296;18.960;2022-07-23T18:00:06;10.13;;;9.10;;
37485;SDS011;23341;50.296;18.960;2022-07-23T18:05:14;12.00;;;10.73;;
37485;SDS011;23341;50.296;18.960;2022-07-23T18:10:18;12.13;;;11.02;;
37485;SDS011;23341;50.296;18.960;2022-07-23T18:15:21;12.18;;;11.02;;
37485;SDS011;23341;50.296;18.960;2022-07-23T18:20:27;14.27;;;9.70;;
37485;SDS011;23341;50.296;18.960;2022-07-23T18:25:38;15.05;;;10.52;;
37485;SDS011;23341;50.296;18.960;2022-07-23T18:30:41;17.23;;;10.15;;
37485;SDS011;23341;50.296;18.960;2022-07-23T18:35:46;12.15;;;10.10;;
37485;SDS011;23341;50.296;18.960;2022-07-23T18:40:50;11.57;;;10.20;;
37485;SDS011;23341;50.296;18.960;2022-07-23T18:45:55;11.48;;;10.35;;
37485;SDS011;23341;50.296;18.960;2022-07-23T18:51:05;12.30;;;10.27;;
37485;SDS011;23341;50.296;18.960;2022-07-23T18:56:10;12.73;;;11.13;;
37485;SDS011;23341;50.296;18.960;2022-07-23T19:01:17;12.68;;;10.98;;
37485;SDS011;23341;50.296;18.960;2022-07-23T19:06:22;13.85;;;11.73;;
37485;SDS011;23341;50.296;18.960;2022-07-23T19:11:26;12.07;;;10.98;;
37485;SDS011;23341;50.296;18.960;2022-07-23T19:16:29;14.65;;;12.18;;
37485;SDS011;23341;50.296;18.960;2022-07-23T19:21:35;14.02;;;12.23;;
37485;SDS011;23341;50.296;18.960;2022-07-23T19:26:38;13.50;;;11.73;;
37485;SDS011;23341;50.296;18.960;2022-07-23T19:31:42;13.40;;;11.70;;
37485;SDS011;23341;50.296;18.960;2022-07-23T19:36:47;13.93;;;12.27;;
37485;SDS011;23341;50.296;18.960;2022-07-23T19:41:51;12.20;;;11.05;;
37485;SDS011;23341;50.296;18.960;2022-07-23T19:46:54;14.95;;;11.30;;
37485;SDS011;23341;50.296;18.960;2022-07-23T19:51:59;13.75;;;12.30;;
37485;SDS011;23341;50.296;18.960;2022-07-23T19:57:03;17.33;;;13.70;;
37485;SDS011;23341;50.296;18.960;2022-07-23T20:02:07;16.80;;;13.00;;
37485;SDS011;23341;50.296;18.960;2022-07-23T20:07:11;18.55;;;12.68;;
37485;SDS011;23341;50.296;18.960;2022-07-23T20:12:15;14.70;;;12.50;;
37485;SDS011;23341;50.296;18.960;2022-07-23T20:17:18;13.80;;;12.50;;
37485;SDS011;23341;50.296;18.960;2022-07-23T20:22:23;15.32;;;13.77;;
37485;SDS011;23341;50.296;18.960;2022-07-23T20:27:26;15.95;;;14.10;;
37485;SDS011;23341;50.296;18.960;2022-07-23T20:32:30;13.65;;;12.32;;
37485;SDS011;23341;50.296;18.960;2022-07-23T20:37:35;16.35;;;12.88;;
37485;SDS011;23341;50.296;18.960;2022-07-23T20:42:39;15.45;;;13.88;;
37485;SDS011;23341;50.296;18.960;2022-07-23T20:47:42;15.68;;;14.13;;
37485;SDS011;23341;50.296;18.960;2022-07-23T20:52:47;19.52;;;14.15;;
37485;SDS011;23341;50.296;18.960;2022-07-23T20:57:50;20.25;;;14.63;;
37485;SDS011;23341;50.296;18.960;2022-07-23T21:02:54;16.52;;;14.82;;
37485;SDS011;23341;50.296;18.960;2022-07-23T21:07:59;17.55;;;15.63;;
37485;SDS011;23341;50.296;18.960;2022-07-23T21:13:03;31.95;;;18.58;;
37485;SDS011;23341;50.296;18.960;2022-07-23T21:18:07;33.38;;;22.05;;
37485;SDS011;23341;50.296;18.960;2022-07-23T21:23:12;31.00;;;21.77;;
37485;SDS011;23341;50.296;18.960;2022-07-23T21:28:15;31.30;;;23.10;;
37485;SDS011;23341;50.296;18.960;2022-07-23T21:33:19;36.50;;;28.40;;
37485;SDS011;23341;50.296;18.960;2022-07-23T21:38:24;35.80;;;27.23;;
37485;SDS011;23341;50.296;18.960;2022-07-23T21:43:28;34.70;;;31.13;;
37485;SDS011;23341;50.296;18.960;2022-07-23T21:48:33;37.15;;;29.50;;
37485;SDS011;23341;50.296;18.960;2022-07-23T21:53:38;32.72;;;27.33;;
37485;SDS011;23341;50.296;18.960;2022-07-23T21:58:41;28.80;;;25.92;;
37485;SDS011;23341;50.296;18.960;2022-07-23T22:03:44;29.85;;;24.67;;
37485;SDS011;23341;50.296;18.960;2022-07-23T22:08:50;21.92;;;19.70;;
37485;SDS011;23341;50.296;18.960;2022-07-23T22:13:54;18.27;;;16.40;;
37485;SDS011;23341;50.296;18.960;2022-07-23T22:18:57;18.17;;;16.27;;
37485;SDS011;23341;50.296;18.960;2022-07-23T22:24:02;19.50;;;17.48;;
37485;SDS011;23341;50.296;18.960;2022-07-23T22:29:06;16.83;;;15.43;;
37485;SDS011;23341;50.296;18.960;2022-07-23T22:34:10;17.05;;;15.40;;
37485;SDS011;23341;50.296;18.960;2022-07-23T22:39:15;18.02;;;16.17;;
37485;SDS011;23341;50.296;18.960;2022-07-23T22:44:21;19.77;;;17.85;;
37485;SDS011;23341;50.296;18.960;2022-07-23T22:49:25;15.02;;;13.60;;
37485;SDS011;23341;50.296;18.960;2022-07-23T22:54:30;13.00;;;11.80;;
37485;SDS011;23341;50.296;18.960;2022-07-23T22:59:34;10.57;;;9.68;;
37485;SDS011;23341;50.296;18.960;2022-07-23T23:04:39;11.50;;;10.43;;
37485;SDS011;23341;50.296;18.960;2022-07-23T23:09:43;11.75;;;10.77;;
37485;SDS011;23341;50.296;18.960;2022-07-23T23:14:47;12.50;;;11.43;;
37485;SDS011;23341;50.296;18.960;2022-07-23T23:19:51;12.80;;;11.52;;
37485;SDS011;23341;50.296;18.960;2022-07-23T23:24:55;13.57;;;12.23;;
37485;SDS011;23341;50.296;18.960;2022-07-23T23:29:59;16.25;;;14.68;;
37485;SDS011;23341;50.296;18.960;2022-07-23T23:35:03;18.98;;;17.17;;
37485;SDS011;23341;50.296;18.960;2022-07-23T23:40:08;22.40;;;19.98;;
37485;SDS011;23341;50.296;18.960;2022-07-23T23:45:12;22.15;;;20.05;;
37485;SDS011;23341;50.296;18.960;2022-07-23T23:50:16;24.45;;;22.00;;
37485;SDS011;23341;50.296;18.960;2022-07-23T23:55:20;23.88;;;21.58;;
